sensor_id;sensor_type;location;lat;lon;timestamp;temperature;humidity
1948;DHT22;974;52.400;9.818;2023-04-03T00:01:32;2.70;97.70
1948;DHT22;974;52.400;9.818;2023-04-03T00:03:58;2.70;97.90
1948;DHT22;974;52.400;9.818;2023-04-03T00:06:24;2.60;97.90
1948;DHT22;974;52.400;9.818;2023-04-03T00:08:51;2.50;97.90
1948;DHT22;974;52.400;9.818;2023-04-03T00:11:18;2.60;98.50
1948;DHT22;974;52.400;9.818;2023-04-03T00:13:44;2.50;98.40
1948;DHT22;974;52.400;9.818;2023-04-03T00:16:10;2.30;98.40
1948;DHT22;974;52.400;9.818;2023-04-03T00:18:36;2.20;98.50
1948;DHT22;974;52.400;9.818;2023-04-03T00:21:02;2.20;98.90
1948;DHT22;974;52.400;9.818;2023-04-03T00:23:28;2.10;98.90
1948;DHT22;974;52.400;9.818;2023-04-03T00:25:54;2.10;99.30
1948;DHT22;974;52.400;9.818;2023-04-03T00:28:20;2.10;99.60
1948;DHT22;974;52.400;9.818;2023-04-03T00:30:46;2.10;99.90
1948;DHT22;974;52.400;9.818;2023-04-03T00:33:13;2.10;99.90
1948;DHT22;974;52.400;9.818;2023-04-03T00:35:40;2.00;99.90
1948;DHT22;974;52.400;9.818;2023-04-03T00:38:05;2.10;99.90
1948;DHT22;974;52.400;9.818;2023-04-03T00:40:38;2.00;99.90
1948;DHT22;974;52.400;9.818;2023-04-03T00:43:14;2.10;99.90
1948;DHT22;974;52.400;9.818;2023-04-03T00:45:45;2.00;99.90
1948;DHT22;974;52.400;9.818;2023-04-03T00:48:18;1.90;99.90
1948;DHT22;974;52.400;9.818;2023-04-03T00:50:45;1.70;99.90
1948;DHT22;974;52.400;9.818;2023-04-03T00:53:17;1.70;99.90
1948;DHT22;974;52.400;9.818;2023-04-03T00:55:43;1.60;99.90
1948;DHT22;974;52.400;9.818;2023-04-03T00:58:10;1.50;99.90
1948;DHT22;974;52.400;9.818;2023-04-03T01:00:38;1.50;99.90
1948;DHT22;974;52.400;9.818;2023-04-03T01:03:05;1.40;99.90
1948;DHT22;974;52.400;9.818;2023-04-03T01:05:31;1.40;99.90
1948;DHT22;974;52.400;9.818;2023-04-03T01:07:57;1.40;99.90
1948;DHT22;974;52.400;9.818;2023-04-03T01:10:23;1.40;99.90
1948;DHT22;974;52.400;9.818;2023-04-03T01:12:50;1.40;99.90
1948;DHT22;974;52.400;9.818;2023-04-03T01:15:21;1.30;99.90
1948;DHT22;974;52.400;9.818;2023-04-03T01:17:53;1.20;99.90
1948;DHT22;974;52.400;9.818;2023-04-03T01:23:30;1.40;99.90
1948;DHT22;974;52.400;9.818;2023-04-03T01:25:57;1.40;99.90
1948;DHT22;974;52.400;9.818;2023-04-03T01:28:27;1.40;99.90
1948;DHT22;974;52.400;9.818;2023-04-03T01:31:02;1.40;99.90
1948;DHT22;974;52.400;9.818;2023-04-03T01:33:30;1.40;99.90
1948;DHT22;974;52.400;9.818;2023-04-03T01:35:55;1.50;99.90
1948;DHT22;974;52.400;9.818;2023-04-03T01:38:21;1.40;99.90
1948;DHT22;974;52.400;9.818;2023-04-03T01:40:46;1.40;99.90
1948;DHT22;974;52.400;9.818;2023-04-03T01:43:12;1.40;99.90
1948;DHT22;974;52.400;9.818;2023-04-03T01:45:37;1.40;99.90
1948;DHT22;974;52.400;9.818;2023-04-03T01:48:03;1.30;99.90
1948;DHT22;974;52.400;9.818;2023-04-03T01:50:29;1.30;99.90
1948;DHT22;974;52.400;9.818;2023-04-03T01:52:54;1.30;99.90
1948;DHT22;974;52.400;9.818;2023-04-03T01:55:20;1.30;99.90
1948;DHT22;974;52.400;9.818;2023-04-03T01:57:45;1.20;99.90
1948;DHT22;974;52.400;9.818;2023-04-03T02:00:11;1.20;99.90
1948;DHT22;974;52.400;9.818;2023-04-03T02:02:37;1.10;99.90
1948;DHT22;974;52.400;9.818;2023-04-03T02:05:03;1.10;99.90
1948;DHT22;974;52.400;9.818;2023-04-03T02:07:28;1.10;99.90
1948;DHT22;974;52.400;9.818;2023-04-03T02:09:54;1.10;99.90
1948;DHT22;974;52.400;9.818;2023-04-03T02:12:19;1.10;99.90
1948;DHT22;974;52.400;9.818;2023-04-03T02:14:45;1.00;99.90
1948;DHT22;974;52.400;9.818;2023-04-03T02:17:10;1.00;99.90
1948;DHT22;974;52.400;9.818;2023-04-03T02:19:36;0.90;99.90
1948;DHT22;974;52.400;9.818;2023-04-03T02:22:03;0.90;99.90
1948;DHT22;974;52.400;9.818;2023-04-03T02:24:28;0.90;99.90
1948;DHT22;974;52.400;9.818;2023-04-03T02:26:54;0.80;99.90
1948;DHT22;974;52.400;9.818;2023-04-03T02:29:20;0.70;99.90
1948;DHT22;974;52.400;9.818;2023-04-03T02:31:45;0.70;99.90
1948;DHT22;974;52.400;9.818;2023-04-03T02:34:11;0.60;99.90
1948;DHT22;974;52.400;9.818;2023-04-03T02:36:37;0.60;99.90
1948;DHT22;974;52.400;9.818;2023-04-03T02:39:03;0.70;99.90
1948;DHT22;974;52.400;9.818;2023-04-03T02:41:28;0.60;99.90
1948;DHT22;974;52.400;9.818;2023-04-03T02:44:00;0.40;99.90
1948;DHT22;974;52.400;9.818;2023-04-03T02:46:26;0.60;99.90
1948;DHT22;974;52.400;9.818;2023-04-03T02:48:51;0.50;99.90
1948;DHT22;974;52.400;9.818;2023-04-03T02:51:17;0.50;99.90
1948;DHT22;974;52.400;9.818;2023-04-03T02:53:43;0.40;99.90
1948;DHT22;974;52.400;9.818;2023-04-03T02:56:08;0.40;99.90
1948;DHT22;974;52.400;9.818;2023-04-03T02:58:34;0.50;99.90
1948;DHT22;974;52.400;9.818;2023-04-03T03:00:59;0.60;99.90
1948;DHT22;974;52.400;9.818;2023-04-03T03:03:25;0.50;99.90
1948;DHT22;974;52.400;9.818;2023-04-03T03:05:59;0.40;99.90
1948;DHT22;974;52.400;9.818;2023-04-03T03:08:25;0.60;99.90
1948;DHT22;974;52.400;9.818;2023-04-03T03:10:50;0.40;99.90
1948;DHT22;974;52.400;9.818;2023-04-03T03:13:16;0.40;99.90
1948;DHT22;974;52.400;9.818;2023-04-03T03:15:42;0.40;99.90
1948;DHT22;974;52.400;9.818;2023-04-03T03:18:08;0.50;99.90
1948;DHT22;974;52.400;9.818;2023-04-03T03:20:33;0.50;99.90
1948;DHT22;974;52.400;9.818;2023-04-03T03:22:58;0.40;99.90
1948;DHT22;974;52.400;9.818;2023-04-03T03:25:24;0.50;99.90
1948;DHT22;974;52.400;9.818;2023-04-03T03:27:50;0.60;99.90
1948;DHT22;974;52.400;9.818;2023-04-03T03:30:15;0.40;99.90
1948;DHT22;974;52.400;9.818;2023-04-03T03:32:40;0.40;99.90
1948;DHT22;974;52.400;9.818;2023-04-03T03:35:06;0.40;99.90
1948;DHT22;974;52.400;9.818;2023-04-03T03:37:32;0.60;99.90
1948;DHT22;974;52.400;9.818;2023-04-03T03:39:57;0.60;99.90
1948;DHT22;974;52.400;9.818;2023-04-03T03:42:23;0.50;99.90
1948;DHT22;974;52.400;9.818;2023-04-03T03:44:48;0.40;99.90
1948;DHT22;974;52.400;9.818;2023-04-03T03:47:14;0.40;99.90
1948;DHT22;974;52.400;9.818;2023-04-03T03:49:39;0.50;99.90
1948;DHT22;974;52.400;9.818;2023-04-03T03:52:06;0.40;99.90
1948;DHT22;974;52.400;9.818;2023-04-03T03:54:31;0.50;99.90
1948;DHT22;974;52.400;9.818;2023-04-03T03:56:57;0.50;99.90
1948;DHT22;974;52.400;9.818;2023-04-03T03:59:22;0.40;99.90
1948;DHT22;974;52.400;9.818;2023-04-03T04:01:48;0.50;99.90
1948;DHT22;974;52.400;9.818;2023-04-03T04:04:13;0.40;99.90
1948;DHT22;974;52.400;9.818;2023-04-03T04:06:39;0.40;99.90
1948;DHT22;974;52.400;9.818;2023-04-03T04:09:04;0.30;99.90
1948;DHT22;974;52.400;9.818;2023-04-03T04:11:30;0.30;99.90
1948;DHT22;974;52.400;9.818;2023-04-03T04:13:57;0.30;99.90
1948;DHT22;974;52.400;9.818;2023-04-03T04:16:23;0.30;99.90
1948;DHT22;974;52.400;9.818;2023-04-03T04:18:48;0.40;99.90
1948;DHT22;974;52.400;9.818;2023-04-03T04:21:13;0.50;99.90
1948;DHT22;974;52.400;9.818;2023-04-03T04:23:39;0.50;99.90
1948;DHT22;974;52.400;9.818;2023-04-03T04:26:05;0.50;99.90
1948;DHT22;974;52.400;9.818;2023-04-03T04:28:30;0.50;99.90
1948;DHT22;974;52.400;9.818;2023-04-03T04:30:56;0.50;99.90
1948;DHT22;974;52.400;9.818;2023-04-03T04:33:21;0.60;99.90
1948;DHT22;974;52.400;9.818;2023-04-03T04:35:47;0.50;99.90
1948;DHT22;974;52.400;9.818;2023-04-03T04:38:14;0.60;99.90
1948;DHT22;974;52.400;9.818;2023-04-03T04:40:39;0.60;99.90
1948;DHT22;974;52.400;9.818;2023-04-03T04:43:05;0.60;99.90
1948;DHT22;974;52.400;9.818;2023-04-03T04:45:31;0.50;99.90
1948;DHT22;974;52.400;9.818;2023-04-03T04:47:56;0.60;99.90
1948;DHT22;974;52.400;9.818;2023-04-03T04:50:22;0.40;99.90
1948;DHT22;974;52.400;9.818;2023-04-03T04:52:48;0.50;99.90
1948;DHT22;974;52.400;9.818;2023-04-03T04:55:13;0.60;99.90
1948;DHT22;974;52.400;9.818;2023-04-03T04:57:39;0.70;99.90
1948;DHT22;974;52.400;9.818;2023-04-03T05:00:05;0.60;99.90
1948;DHT22;974;52.400;9.818;2023-04-03T05:02:31;0.60;99.90
1948;DHT22;974;52.400;9.818;2023-04-03T05:04:56;0.50;99.90
1948;DHT22;974;52.400;9.818;2023-04-03T05:07:22;0.50;99.90
1948;DHT22;974;52.400;9.818;2023-04-03T05:09:48;0.50;99.90
1948;DHT22;974;52.400;9.818;2023-04-03T05:12:13;0.70;99.90
1948;DHT22;974;52.400;9.818;2023-04-03T05:14:39;0.60;99.90
1948;DHT22;974;52.400;9.818;2023-04-03T05:17:04;0.40;99.90
1948;DHT22;974;52.400;9.818;2023-04-03T05:19:30;0.30;99.90
1948;DHT22;974;52.400;9.818;2023-04-03T05:21:55;0.30;99.90
1948;DHT22;974;52.400;9.818;2023-04-03T05:24:21;0.20;99.90
1948;DHT22;974;52.400;9.818;2023-04-03T05:26:46;0.20;99.90
1948;DHT22;974;52.400;9.818;2023-04-03T05:29:12;0.10;99.90
1948;DHT22;974;52.400;9.818;2023-04-03T05:31:37;0.20;99.90
1948;DHT22;974;52.400;9.818;2023-04-03T05:34:03;0.20;99.90
1948;DHT22;974;52.400;9.818;2023-04-03T05:36:28;0.20;99.90
1948;DHT22;974;52.400;9.818;2023-04-03T05:38:54;0.20;99.90
1948;DHT22;974;52.400;9.818;2023-04-03T05:41:22;0.40;99.90
1948;DHT22;974;52.400;9.818;2023-04-03T05:43:47;0.30;99.90
1948;DHT22;974;52.400;9.818;2023-04-03T05:46:15;0.40;99.90
1948;DHT22;974;52.400;9.818;2023-04-03T05:48:42;0.30;99.90
1948;DHT22;974;52.400;9.818;2023-04-03T05:51:14;0.40;99.90
1948;DHT22;974;52.400;9.818;2023-04-03T05:53:41;0.30;99.90
1948;DHT22;974;52.400;9.818;2023-04-03T05:56:08;0.40;99.90
1948;DHT22;974;52.400;9.818;2023-04-03T05:58:33;0.40;99.90
1948;DHT22;974;52.400;9.818;2023-04-03T06:00:59;0.40;99.90
1948;DHT22;974;52.400;9.818;2023-04-03T06:03:25;0.40;99.90
1948;DHT22;974;52.400;9.818;2023-04-03T06:05:50;0.50;99.90
1948;DHT22;974;52.400;9.818;2023-04-03T06:08:16;0.50;99.90
1948;DHT22;974;52.400;9.818;2023-04-03T06:10:41;0.70;99.90
1948;DHT22;974;52.400;9.818;2023-04-03T06:13:07;0.80;99.90
1948;DHT22;974;52.400;9.818;2023-04-03T06:15:33;0.90;99.90
1948;DHT22;974;52.400;9.818;2023-04-03T06:17:59;0.90;99.90
1948;DHT22;974;52.400;9.818;2023-04-03T06:20:24;1.00;99.90
1948;DHT22;974;52.400;9.818;2023-04-03T06:22:50;1.00;99.90
1948;DHT22;974;52.400;9.818;2023-04-03T06:25:16;1.00;99.90
1948;DHT22;974;52.400;9.818;2023-04-03T06:27:44;1.10;99.90
1948;DHT22;974;52.400;9.818;2023-04-03T06:30:10;1.20;99.90
1948;DHT22;974;52.400;9.818;2023-04-03T06:32:36;1.20;99.90
1948;DHT22;974;52.400;9.818;2023-04-03T06:35:01;1.30;99.90
1948;DHT22;974;52.400;9.818;2023-04-03T06:37:27;1.20;99.90
1948;DHT22;974;52.400;9.818;2023-04-03T06:39:54;1.20;99.90
1948;DHT22;974;52.400;9.818;2023-04-03T06:42:20;1.30;99.90
1948;DHT22;974;52.400;9.818;2023-04-03T06:44:46;1.20;99.90
1948;DHT22;974;52.400;9.818;2023-04-03T06:47:13;1.30;99.90
1948;DHT22;974;52.400;9.818;2023-04-03T06:49:40;1.40;99.90
1948;DHT22;974;52.400;9.818;2023-04-03T06:52:06;1.40;99.90
1948;DHT22;974;52.400;9.818;2023-04-03T06:54:32;1.50;99.90
1948;DHT22;974;52.400;9.818;2023-04-03T06:56:58;1.60;99.90
1948;DHT22;974;52.400;9.818;2023-04-03T06:59:23;1.60;99.90
1948;DHT22;974;52.400;9.818;2023-04-03T07:01:49;1.70;99.90
1948;DHT22;974;52.400;9.818;2023-04-03T07:04:15;1.70;99.90
1948;DHT22;974;52.400;9.818;2023-04-03T07:06:41;1.80;99.90
1948;DHT22;974;52.400;9.818;2023-04-03T07:09:08;1.80;99.90
1948;DHT22;974;52.400;9.818;2023-04-03T07:11:34;1.90;99.90
1948;DHT22;974;52.400;9.818;2023-04-03T07:14:00;2.00;99.90
1948;DHT22;974;52.400;9.818;2023-04-03T07:16:25;2.20;99.90
1948;DHT22;974;52.400;9.818;2023-04-03T07:18:51;2.10;99.90
1948;DHT22;974;52.400;9.818;2023-04-03T07:21:16;2.10;99.90
1948;DHT22;974;52.400;9.818;2023-04-03T07:23:42;2.20;99.90
1948;DHT22;974;52.400;9.818;2023-04-03T07:26:07;2.30;99.90
1948;DHT22;974;52.400;9.818;2023-04-03T07:28:33;2.40;99.90
1948;DHT22;974;52.400;9.818;2023-04-03T07:31:07;2.40;99.90
1948;DHT22;974;52.400;9.818;2023-04-03T07:33:34;2.50;99.90
1948;DHT22;974;52.400;9.818;2023-04-03T07:36:01;2.50;99.90
1948;DHT22;974;52.400;9.818;2023-04-03T07:38:27;2.60;99.90
1948;DHT22;974;52.400;9.818;2023-04-03T07:40:52;2.60;99.90
1948;DHT22;974;52.400;9.818;2023-04-03T07:43:19;2.70;99.90
1948;DHT22;974;52.400;9.818;2023-04-03T07:45:45;2.80;99.90
1948;DHT22;974;52.400;9.818;2023-04-03T07:48:15;2.90;99.90
1948;DHT22;974;52.400;9.818;2023-04-03T07:50:42;2.90;99.90
1948;DHT22;974;52.400;9.818;2023-04-03T07:53:08;3.00;99.90
1948;DHT22;974;52.400;9.818;2023-04-03T07:55:34;3.10;99.90
1948;DHT22;974;52.400;9.818;2023-04-03T07:57:59;3.10;99.90
1948;DHT22;974;52.400;9.818;2023-04-03T08:00:25;3.20;99.90
1948;DHT22;974;52.400;9.818;2023-04-03T08:02:50;3.20;99.90
1948;DHT22;974;52.400;9.818;2023-04-03T08:05:20;3.40;99.90
1948;DHT22;974;52.400;9.818;2023-04-03T08:07:47;3.40;99.90
1948;DHT22;974;52.400;9.818;2023-04-03T08:10:12;3.40;99.90
1948;DHT22;974;52.400;9.818;2023-04-03T08:12:38;3.60;99.90
1948;DHT22;974;52.400;9.818;2023-04-03T08:15:04;3.60;99.90
1948;DHT22;974;52.400;9.818;2023-04-03T08:17:30;3.70;99.90
1948;DHT22;974;52.400;9.818;2023-04-03T08:19:56;3.70;99.90
1948;DHT22;974;52.400;9.818;2023-04-03T08:22:21;3.80;99.90
1948;DHT22;974;52.400;9.818;2023-04-03T08:24:47;3.80;99.90
1948;DHT22;974;52.400;9.818;2023-04-03T08:27:12;3.90;99.90
1948;DHT22;974;52.400;9.818;2023-04-03T08:29:38;4.00;99.90
1948;DHT22;974;52.400;9.818;2023-04-03T08:32:04;4.00;99.90
1948;DHT22;974;52.400;9.818;2023-04-03T08:34:30;4.10;99.90
1948;DHT22;974;52.400;9.818;2023-04-03T08:36:56;4.10;99.90
1948;DHT22;974;52.400;9.818;2023-04-03T08:39:21;4.20;99.90
1948;DHT22;974;52.400;9.818;2023-04-03T08:41:47;4.30;99.90
1948;DHT22;974;52.400;9.818;2023-04-03T08:44:38;4.40;99.90
1948;DHT22;974;52.400;9.818;2023-04-03T08:49:49;4.50;99.90
1948;DHT22;974;52.400;9.818;2023-04-03T08:52:47;4.70;99.90
1948;DHT22;974;52.400;9.818;2023-04-03T08:57:53;4.90;99.90
1948;DHT22;974;52.400;9.818;2023-04-03T09:00:28;4.90;99.90
1948;DHT22;974;52.400;9.818;2023-04-03T09:02:56;4.90;99.90
1948;DHT22;974;52.400;9.818;2023-04-03T09:08:36;5.10;99.90
1948;DHT22;974;52.400;9.818;2023-04-03T09:11:12;5.20;99.90
1948;DHT22;974;52.400;9.818;2023-04-03T09:14:01;5.30;99.90
1948;DHT22;974;52.400;9.818;2023-04-03T09:16:44;5.40;99.90
1948;DHT22;974;52.400;9.818;2023-04-03T09:22:02;5.40;99.90
1948;DHT22;974;52.400;9.818;2023-04-03T09:24:28;5.40;99.90
1948;DHT22;974;52.400;9.818;2023-04-03T09:27:04;5.50;99.90
1948;DHT22;974;52.400;9.818;2023-04-03T09:29:38;5.60;99.90
1948;DHT22;974;52.400;9.818;2023-04-03T09:34:51;5.90;99.90
1948;DHT22;974;52.400;9.818;2023-04-03T09:37:38;6.00;99.90
1948;DHT22;974;52.400;9.818;2023-04-03T09:40:05;6.10;99.90
1948;DHT22;974;52.400;9.818;2023-04-03T09:42:32;6.20;99.90
1948;DHT22;974;52.400;9.818;2023-04-03T09:45:03;6.40;99.90
1948;DHT22;974;52.400;9.818;2023-04-03T09:47:34;6.60;99.90
1948;DHT22;974;52.400;9.818;2023-04-03T09:52:40;6.80;99.90
1948;DHT22;974;52.400;9.818;2023-04-03T09:55:07;7.00;99.90
1948;DHT22;974;52.400;9.818;2023-04-03T09:57:33;7.00;99.90
1948;DHT22;974;52.400;9.818;2023-04-03T10:00:01;7.20;99.90
1948;DHT22;974;52.400;9.818;2023-04-03T10:02:39;7.40;99.90
1948;DHT22;974;52.400;9.818;2023-04-03T10:07:51;7.80;99.90
1948;DHT22;974;52.400;9.818;2023-04-03T10:10:21;7.90;99.90
1948;DHT22;974;52.400;9.818;2023-04-03T10:13:02;8.10;99.90
1948;DHT22;974;52.400;9.818;2023-04-03T10:15:29;8.10;99.90
1948;DHT22;974;52.400;9.818;2023-04-03T10:18:02;8.30;99.90
1948;DHT22;974;52.400;9.818;2023-04-03T10:20:46;8.40;99.90
1948;DHT22;974;52.400;9.818;2023-04-03T10:23:23;8.50;99.90
1948;DHT22;974;52.400;9.818;2023-04-03T10:26:02;8.60;99.90
1948;DHT22;974;52.400;9.818;2023-04-03T10:28:33;8.80;99.90
1948;DHT22;974;52.400;9.818;2023-04-03T10:33:59;9.00;99.60
1948;DHT22;974;52.400;9.818;2023-04-03T10:36:46;9.10;99.40
1948;DHT22;974;52.400;9.818;2023-04-03T10:39:23;9.30;99.10
1948;DHT22;974;52.400;9.818;2023-04-03T10:42:15;9.20;99.30
1948;DHT22;974;52.400;9.818;2023-04-03T10:45:03;9.10;97.60
1948;DHT22;974;52.400;9.818;2023-04-03T10:48:04;8.70;96.20
1948;DHT22;974;52.400;9.818;2023-04-03T10:50:45;8.70;96.30
1948;DHT22;974;52.400;9.818;2023-04-03T10:53:55;8.80;95.20
1948;DHT22;974;52.400;9.818;2023-04-03T10:56:35;9.00;95.70
1948;DHT22;974;52.400;9.818;2023-04-03T10:59:16;9.00;95.20
1948;DHT22;974;52.400;9.818;2023-04-03T11:01:46;8.80;94.20
1948;DHT22;974;52.400;9.818;2023-04-03T11:04:14;9.10;95.30
1948;DHT22;974;52.400;9.818;2023-04-03T11:06:52;9.10;94.70
1948;DHT22;974;52.400;9.818;2023-04-03T11:09:37;9.30;95.10
1948;DHT22;974;52.400;9.818;2023-04-03T11:12:11;9.30;94.70
1948;DHT22;974;52.400;9.818;2023-04-03T11:14:39;9.40;94.80
1948;DHT22;974;52.400;9.818;2023-04-03T11:22:24;10.00;93.30
1948;DHT22;974;52.400;9.818;2023-04-03T11:27:23;9.60;91.90
1948;DHT22;974;52.400;9.818;2023-04-03T11:29:50;9.50;91.60
1948;DHT22;974;52.400;9.818;2023-04-03T11:32:29;9.40;91.50
1948;DHT22;974;52.400;9.818;2023-04-03T11:35:00;9.20;91.60
1948;DHT22;974;52.400;9.818;2023-04-03T11:40:05;9.00;92.10
1948;DHT22;974;52.400;9.818;2023-04-03T11:42:52;8.90;92.60
1948;DHT22;974;52.400;9.818;2023-04-03T11:47:51;9.50;93.60
1948;DHT22;974;52.400;9.818;2023-04-03T12:01:11;12.40;75.70
1948;DHT22;974;52.400;9.818;2023-04-03T12:04:06;12.20;76.30
1948;DHT22;974;52.400;9.818;2023-04-03T12:08:57;11.00;75.10
1948;DHT22;974;52.400;9.818;2023-04-03T12:11:29;10.60;75.10
1948;DHT22;974;52.400;9.818;2023-04-03T12:24:24;10.50;76.70
1948;DHT22;974;52.400;9.818;2023-04-03T12:40:43;27.40;57.00
1948;DHT22;974;52.400;9.818;2023-04-03T12:45:50;32.50;31.50
1948;DHT22;974;52.400;9.818;2023-04-03T12:48:20;30.00;27.20
1948;DHT22;974;52.400;9.818;2023-04-03T12:50:47;27.60;27.20
1948;DHT22;974;52.400;9.818;2023-04-03T12:53:16;26.30;27.90
1948;DHT22;974;52.400;9.818;2023-04-03T12:55:43;24.80;30.30
1948;DHT22;974;52.400;9.818;2023-04-03T12:58:48;23.00;29.20
1948;DHT22;974;52.400;9.818;2023-04-03T13:01:15;20.90;29.20
1948;DHT22;974;52.400;9.818;2023-04-03T13:03:44;18.70;29.60
1948;DHT22;974;52.400;9.818;2023-04-03T13:06:17;17.30;30.30
1948;DHT22;974;52.400;9.818;2023-04-03T13:08:54;17.00;32.50
1948;DHT22;974;52.400;9.818;2023-04-03T13:11:23;17.00;32.00
1948;DHT22;974;52.400;9.818;2023-04-03T13:16:25;17.50;33.70
1948;DHT22;974;52.400;9.818;2023-04-03T13:18:53;17.90;34.00
1948;DHT22;974;52.400;9.818;2023-04-03T13:21:22;18.50;34.20
1948;DHT22;974;52.400;9.818;2023-04-03T13:23:51;18.30;33.50
1948;DHT22;974;52.400;9.818;2023-04-03T13:26:20;16.80;32.10
1948;DHT22;974;52.400;9.818;2023-04-03T13:28:47;16.50;33.90
1948;DHT22;974;52.400;9.818;2023-04-03T13:36:37;14.40;35.70
1948;DHT22;974;52.400;9.818;2023-04-03T13:41:43;13.10;37.20
1948;DHT22;974;52.400;9.818;2023-04-03T13:46:47;12.10;39.20
1948;DHT22;974;52.400;9.818;2023-04-03T13:49:31;12.20;39.70
1948;DHT22;974;52.400;9.818;2023-04-03T13:51:57;12.30;40.30
1948;DHT22;974;52.400;9.818;2023-04-03T13:54:35;12.10;40.20
1948;DHT22;974;52.400;9.818;2023-04-03T13:57:02;12.10;41.30
1948;DHT22;974;52.400;9.818;2023-04-03T13:59:35;12.20;41.60
1948;DHT22;974;52.400;9.818;2023-04-03T14:04:32;11.90;41.30
1948;DHT22;974;52.400;9.818;2023-04-03T14:06:58;12.00;41.70
1948;DHT22;974;52.400;9.818;2023-04-03T14:09:26;12.30;41.80
1948;DHT22;974;52.400;9.818;2023-04-03T14:12:04;12.50;41.80
1948;DHT22;974;52.400;9.818;2023-04-03T14:14:33;12.80;41.90
1948;DHT22;974;52.400;9.818;2023-04-03T14:17:01;12.90;41.40
1948;DHT22;974;52.400;9.818;2023-04-03T14:19:31;13.20;41.60
1948;DHT22;974;52.400;9.818;2023-04-03T14:21:58;13.50;41.30
1948;DHT22;974;52.400;9.818;2023-04-03T14:24:24;13.50;41.20
1948;DHT22;974;52.400;9.818;2023-04-03T14:26:53;13.40;41.30
1948;DHT22;974;52.400;9.818;2023-04-03T14:29:20;13.00;40.50
1948;DHT22;974;52.400;9.818;2023-04-03T14:31:46;12.70;40.80
1948;DHT22;974;52.400;9.818;2023-04-03T14:34:12;12.80;41.30
1948;DHT22;974;52.400;9.818;2023-04-03T14:36:39;12.70;41.60
1948;DHT22;974;52.400;9.818;2023-04-03T14:39:05;12.40;41.50
1948;DHT22;974;52.400;9.818;2023-04-03T14:41:31;12.20;42.00
1948;DHT22;974;52.400;9.818;2023-04-03T14:43:57;11.70;41.70
1948;DHT22;974;52.400;9.818;2023-04-03T14:46:30;12.00;42.70
1948;DHT22;974;52.400;9.818;2023-04-03T14:48:56;12.20;42.40
1948;DHT22;974;52.400;9.818;2023-04-03T14:51:22;12.10;42.30
1948;DHT22;974;52.400;9.818;2023-04-03T14:53:48;11.80;42.40
1948;DHT22;974;52.400;9.818;2023-04-03T14:56:22;11.40;42.20
1948;DHT22;974;52.400;9.818;2023-04-03T14:58:49;11.30;43.00
1948;DHT22;974;52.400;9.818;2023-04-03T15:01:17;11.10;43.10
1948;DHT22;974;52.400;9.818;2023-04-03T15:03:43;11.10;44.20
1948;DHT22;974;52.400;9.818;2023-04-03T15:06:11;11.20;44.30
1948;DHT22;974;52.400;9.818;2023-04-03T15:08:37;11.40;44.50
1948;DHT22;974;52.400;9.818;2023-04-03T15:11:03;11.40;44.30
1948;DHT22;974;52.400;9.818;2023-04-03T15:13:29;11.70;44.40
1948;DHT22;974;52.400;9.818;2023-04-03T15:15:54;11.80;44.40
1948;DHT22;974;52.400;9.818;2023-04-03T15:18:22;12.00;44.50
1948;DHT22;974;52.400;9.818;2023-04-03T15:20:48;12.00;43.60
1948;DHT22;974;52.400;9.818;2023-04-03T15:23:16;12.20;43.80
1948;DHT22;974;52.400;9.818;2023-04-03T15:25:47;12.20;44.20
1948;DHT22;974;52.400;9.818;2023-04-03T15:28:35;12.00;44.10
1948;DHT22;974;52.400;9.818;2023-04-03T15:31:02;11.60;44.20
1948;DHT22;974;52.400;9.818;2023-04-03T15:33:27;11.50;44.50
1948;DHT22;974;52.400;9.818;2023-04-03T15:35:53;11.30;44.60
1948;DHT22;974;52.400;9.818;2023-04-03T15:38:19;11.10;44.60
1948;DHT22;974;52.400;9.818;2023-04-03T15:40:45;10.90;44.80
1948;DHT22;974;52.400;9.818;2023-04-03T15:43:13;10.60;45.30
1948;DHT22;974;52.400;9.818;2023-04-03T15:45:39;10.30;45.40
1948;DHT22;974;52.400;9.818;2023-04-03T15:48:05;10.50;46.70
1948;DHT22;974;52.400;9.818;2023-04-03T15:50:33;10.60;46.70
1948;DHT22;974;52.400;9.818;2023-04-03T15:52:58;10.70;47.10
1948;DHT22;974;52.400;9.818;2023-04-03T15:55:26;10.70;45.90
1948;DHT22;974;52.400;9.818;2023-04-03T15:57:52;10.80;46.10
1948;DHT22;974;52.400;9.818;2023-04-03T16:00:18;11.00;45.90
1948;DHT22;974;52.400;9.818;2023-04-03T16:02:45;11.10;46.20
1948;DHT22;974;52.400;9.818;2023-04-03T16:05:11;11.30;46.00
1948;DHT22;974;52.400;9.818;2023-04-03T16:07:38;11.30;45.90
1948;DHT22;974;52.400;9.818;2023-04-03T16:10:06;11.40;46.00
1948;DHT22;974;52.400;9.818;2023-04-03T16:12:32;11.40;46.20
1948;DHT22;974;52.400;9.818;2023-04-03T16:14:57;11.30;46.00
1948;DHT22;974;52.400;9.818;2023-04-03T16:17:22;11.50;46.40
1948;DHT22;974;52.400;9.818;2023-04-03T16:19:48;11.50;46.00
1948;DHT22;974;52.400;9.818;2023-04-03T16:22:14;11.50;45.90
1948;DHT22;974;52.400;9.818;2023-04-03T16:24:39;11.20;45.40
1948;DHT22;974;52.400;9.818;2023-04-03T16:27:05;11.00;45.30
1948;DHT22;974;52.400;9.818;2023-04-03T16:29:31;10.60;45.20
1948;DHT22;974;52.400;9.818;2023-04-03T16:31:57;10.30;45.30
1948;DHT22;974;52.400;9.818;2023-04-03T16:34:23;10.10;45.50
1948;DHT22;974;52.400;9.818;2023-04-03T16:36:51;9.80;46.70
1948;DHT22;974;52.400;9.818;2023-04-03T16:39:17;9.50;47.30
1948;DHT22;974;52.400;9.818;2023-04-03T16:41:43;9.40;47.70
1948;DHT22;974;52.400;9.818;2023-04-03T16:44:08;9.40;48.60
1948;DHT22;974;52.400;9.818;2023-04-03T16:46:34;9.30;49.30
1948;DHT22;974;52.400;9.818;2023-04-03T16:49:00;9.40;49.70
1948;DHT22;974;52.400;9.818;2023-04-03T16:51:26;9.20;50.00
1948;DHT22;974;52.400;9.818;2023-04-03T16:53:51;9.40;50.30
1948;DHT22;974;52.400;9.818;2023-04-03T16:56:17;9.50;50.60
1948;DHT22;974;52.400;9.818;2023-04-03T16:58:42;9.50;50.10
1948;DHT22;974;52.400;9.818;2023-04-03T17:01:09;9.50;50.10
1948;DHT22;974;52.400;9.818;2023-04-03T17:03:35;9.50;50.30
1948;DHT22;974;52.400;9.818;2023-04-03T17:06:00;9.50;50.00
1948;DHT22;974;52.400;9.818;2023-04-03T17:08:26;9.40;49.70
1948;DHT22;974;52.400;9.818;2023-04-03T17:10:51;9.20;49.70
1948;DHT22;974;52.400;9.818;2023-04-03T17:13:19;9.20;50.00
1948;DHT22;974;52.400;9.818;2023-04-03T17:15:44;9.20;49.90
1948;DHT22;974;52.400;9.818;2023-04-03T17:18:10;9.00;49.80
1948;DHT22;974;52.400;9.818;2023-04-03T17:20:36;8.80;50.20
1948;DHT22;974;52.400;9.818;2023-04-03T17:23:03;8.70;50.60
1948;DHT22;974;52.400;9.818;2023-04-03T17:25:29;8.40;50.50
1948;DHT22;974;52.400;9.818;2023-04-03T17:27:54;8.30;51.00
1948;DHT22;974;52.400;9.818;2023-04-03T17:30:21;8.30;51.30
1948;DHT22;974;52.400;9.818;2023-04-03T17:32:46;8.20;51.50
1948;DHT22;974;52.400;9.818;2023-04-03T17:35:12;8.10;51.50
1948;DHT22;974;52.400;9.818;2023-04-03T17:37:38;7.90;51.80
1948;DHT22;974;52.400;9.818;2023-04-03T17:40:04;7.80;52.10
1948;DHT22;974;52.400;9.818;2023-04-03T17:42:30;7.70;52.50
1948;DHT22;974;52.400;9.818;2023-04-03T17:44:57;7.70;52.60
1948;DHT22;974;52.400;9.818;2023-04-03T17:47:22;7.60;53.00
1948;DHT22;974;52.400;9.818;2023-04-03T17:49:48;7.70;53.50
1948;DHT22;974;52.400;9.818;2023-04-03T17:52:13;7.60;53.50
1948;DHT22;974;52.400;9.818;2023-04-03T17:54:39;7.40;53.70
1948;DHT22;974;52.400;9.818;2023-04-03T17:57:05;7.30;54.00
1948;DHT22;974;52.400;9.818;2023-04-03T17:59:31;7.20;54.30
1948;DHT22;974;52.400;9.818;2023-04-03T18:01:56;7.20;54.60
1948;DHT22;974;52.400;9.818;2023-04-03T18:04:22;7.20;55.30
1948;DHT22;974;52.400;9.818;2023-04-03T18:06:49;7.30;55.90
1948;DHT22;974;52.400;9.818;2023-04-03T18:09:20;7.30;55.50
1948;DHT22;974;52.400;9.818;2023-04-03T18:11:48;7.20;55.70